Le Mars, IA

2:54 AM CST on February 09, 2016 (GMT -0600)
Le Mars Municipal | | Change Station
CLOSE
Current Station
Airport
Location: Le Mars,
Elevation: 1198 ft
Nearby Weather Stations

Elev 1198 ft 42.78 °N, 96.19 °W | Updated 19 minutes ago

Partly Cloudy
Partly Cloudy
12 °F
Feels Like -2 °F
N
13
Wind Variable Wind from NNW
Gusts 24 mph

Today
High -- | Low -- °F
--% Chance of Precip.
Yesterday
High -- | Low -- °F
Precip. -- in
Pressure 30.16 in
Visibility 10.0 miles
Clouds Few 1900 ft
Windchill -2 °F
Dew Point 5 °F
Humidity 73%
Rainfall 0.00 in
Snow Depth Not available.
7:30 AM 5:48 PM
New Moon, 1% visible
METAR KLRJ 090835Z AUTO 34011G21KT 10SM FEW019 M11/M15 A3016 RMK AO2
Pressure 30.16 in
Visibility 10.0 miles
Clouds Few 1900 ft
Windchill -2 °F
Dew Point 5 °F
Humidity 73%
Rainfall 0.00 in
Snow Depth Not available.
7:30 AM 5:48 PM
New Moon, 1% visible
METAR KLRJ 090835Z AUTO 34011G21KT 10SM FEW019 M11/M15 A3016 RMK AO2

10-Day Weather Forecast

Almanac

Astronomy

Feb. 09, 2016 Rise Set
Actual Time
Civil Twilight
Nautical Twilight
Astronomical Twilight
Moon
Length of Visible Light
Length of Day
Tomorrow will be .
, % of the Moon is Illuminated

Today's Extremes

State Highs State Lows

Community

WunderPhotos

Upload Photos

1,891,571 photos uploaded!

WunderBlog® & News

Nearby

Air Quality

  Air Quality AQ Index Pollutant
Not available.

Snow Depth

Station Depth Elevation

Earthquake Activity

City Distance Mag. Time & Date
Minimum magnitude displayed is 2.5.

Coastal Water Temperatures

Place Temperature

Stations

Nearby Weather Stations

Station Location Temp. Windchill Dew Point Humidity Wind Precip. Elev Updated Type
                   

Watches & Warnings

There are currently no watches in effect.